createdAt,value
2023-03-06T00:01:09.355Z,90.85
2023-03-06T00:03:37.334Z,90.80
2023-03-06T00:06:07.086Z,90.70
2023-03-06T00:08:34.972Z,90.75
2023-03-06T00:11:02.834Z,90.43
2023-03-06T00:13:32.085Z,90.34
2023-03-06T00:16:01.282Z,90.42
2023-03-06T00:18:29.172Z,90.45
2023-03-06T00:20:57.088Z,90.58
2023-03-06T00:23:27.515Z,90.40
2023-03-06T00:25:55.436Z,90.32
2023-03-06T00:28:23.440Z,90.48
2023-03-06T00:30:51.354Z,90.47
2023-03-06T00:33:19.208Z,90.63
2023-03-06T00:35:47.066Z,90.63
2023-03-06T00:38:14.971Z,90.69
2023-03-06T00:40:44.539Z,90.55
2023-03-06T00:43:12.425Z,90.57
2023-03-06T00:45:40.518Z,90.60
2023-03-06T00:48:09.444Z,90.20
2023-03-06T00:50:37.589Z,90.36
2023-03-06T00:53:05.412Z,90.47
2023-03-06T00:55:33.550Z,90.33
2023-03-06T00:58:02.939Z,90.27
2023-03-06T01:00:30.644Z,90.36
2023-03-06T01:02:58.553Z,90.49
2023-03-06T01:05:26.663Z,90.25
2023-03-06T01:07:54.645Z,90.26
2023-03-06T01:10:22.741Z,90.42
2023-03-06T01:12:50.614Z,90.37
2023-03-06T01:15:21.283Z,90.28
2023-03-06T01:17:52.744Z,90.32
2023-03-06T01:20:20.686Z,90.56
2023-03-06T01:22:48.553Z,90.55
2023-03-06T01:25:16.487Z,90.63
2023-03-06T01:27:44.413Z,90.67
2023-03-06T01:30:13.541Z,90.76
2023-03-06T01:32:42.752Z,90.86
2023-03-06T01:35:11.916Z,90.77
2023-03-06T01:37:40.290Z,90.53
2023-03-06T01:40:11.294Z,90.48
2023-03-06T01:42:39.330Z,90.21
2023-03-06T01:45:09.760Z,90.35
2023-03-06T01:47:37.985Z,90.50
2023-03-06T01:50:09.487Z,90.65
2023-03-06T01:52:43.043Z,90.48
2023-03-06T01:55:16.530Z,90.69
2023-03-06T01:57:47.808Z,90.76
2023-03-06T02:00:18.909Z,90.82
2023-03-06T02:02:51.553Z,90.45
2023-03-06T02:05:21.025Z,90.41
2023-03-06T02:07:49.395Z,90.80
2023-03-06T02:10:21.300Z,90.24
2023-03-06T02:12:50.886Z,90.39
2023-03-06T02:15:21.450Z,90.18
2023-03-06T02:17:50.984Z,90.39
2023-03-06T02:20:26.359Z,90.30
2023-03-06T02:23:01.217Z,90.12
2023-03-06T02:25:36.001Z,89.81
2023-03-06T02:28:05.587Z,89.82
2023-03-06T02:30:33.489Z,89.62
2023-03-06T02:33:02.296Z,89.63
2023-03-06T02:35:32.559Z,89.85
2023-03-06T02:38:05.796Z,90.09
2023-03-06T02:40:35.378Z,89.90
2023-03-06T02:43:03.578Z,89.88
2023-03-06T02:45:35.191Z,89.73
2023-03-06T02:48:03.228Z,89.71
2023-03-06T02:50:31.706Z,89.81
2023-03-06T02:52:59.763Z,89.48
2023-03-06T02:55:27.616Z,89.56
2023-03-06T02:57:57.923Z,89.49
2023-03-06T03:00:26.499Z,89.14
2023-03-06T03:02:55.275Z,89.27
2023-03-06T03:05:23.270Z,89.70
2023-03-06T03:07:58.358Z,90.03
2023-03-06T03:10:26.850Z,90.13
2023-03-06T03:12:54.801Z,89.88
2023-03-06T03:15:26.558Z,90.15
2023-03-06T03:17:54.538Z,90.19
2023-03-06T03:20:23.541Z,90.18
2023-03-06T03:22:55.014Z,89.91
2023-03-06T03:25:24.474Z,90.00
2023-03-06T03:27:55.282Z,89.88
2023-03-06T03:30:23.871Z,89.92
2023-03-06T03:32:53.382Z,90.16
2023-03-06T03:35:21.773Z,90.32
2023-03-06T03:37:49.678Z,90.05
2023-03-06T03:40:18.164Z,89.94
2023-03-06T03:42:46.014Z,89.98
2023-03-06T03:45:14.354Z,89.86
2023-03-06T03:47:42.954Z,89.78
2023-03-06T03:50:14.123Z,91.92
2023-03-06T03:52:42.298Z,91.09
2023-03-06T03:55:12.523Z,91.72
2023-03-06T03:57:43.117Z,90.60
2023-03-06T04:00:16.113Z,90.46
2023-03-06T04:02:59.986Z,89.87
2023-03-06T04:05:34.250Z,90.49
2023-03-06T04:08:04.334Z,90.67
2023-03-06T04:10:34.237Z,89.41
2023-03-06T04:13:03.280Z,89.79
2023-03-06T04:15:31.348Z,89.19
2023-03-06T04:18:00.911Z,89.15
2023-03-06T04:20:30.610Z,89.76
2023-03-06T04:23:02.501Z,89.96
2023-03-06T04:25:30.638Z,90.47
2023-03-06T04:28:00.736Z,91.18
2023-03-06T04:30:29.934Z,90.26
2023-03-06T04:32:58.076Z,89.89
2023-03-06T04:35:26.331Z,90.38
2023-03-06T04:38:01.886Z,90.18
2023-03-06T04:40:33.645Z,90.83
2023-03-06T04:43:02.166Z,89.39
2023-03-06T04:45:31.527Z,89.09
2023-03-06T04:47:59.668Z,89.27
2023-03-06T04:50:32.377Z,89.69
2023-03-06T04:53:03.438Z,90.40
2023-03-06T04:55:32.260Z,89.75
2023-03-06T04:58:00.149Z,90.00
2023-03-06T05:00:31.419Z,88.94
2023-03-06T05:03:00.792Z,89.98
2023-03-06T05:05:28.748Z,91.00
2023-03-06T05:07:57.093Z,90.42
2023-03-06T05:10:26.362Z,89.49
2023-03-06T05:12:54.029Z,91.22
2023-03-06T05:15:22.049Z,91.39
2023-03-06T05:17:49.893Z,89.06
2023-03-06T05:20:18.889Z,89.95
2023-03-06T05:22:46.774Z,89.73
2023-03-06T05:25:14.730Z,89.41
2023-03-06T05:27:43.897Z,90.13
2023-03-06T05:30:14.590Z,89.86
2023-03-06T05:32:42.731Z,89.35
2023-03-06T05:35:17.991Z,89.40
2023-03-06T05:37:45.877Z,89.82
2023-03-06T05:40:15.013Z,90.41
2023-03-06T05:42:44.258Z,89.17
2023-03-06T05:45:13.040Z,88.49
2023-03-06T05:47:40.919Z,89.30
2023-03-06T05:50:10.518Z,89.30
2023-03-06T05:52:39.478Z,89.72
2023-03-06T05:55:08.727Z,88.23
2023-03-06T05:57:36.591Z,89.17
2023-03-06T06:00:07.296Z,88.55
2023-03-06T06:02:40.573Z,89.37
2023-03-06T06:05:11.793Z,88.93
2023-03-06T06:07:41.066Z,89.06
2023-03-06T06:10:10.397Z,89.01
2023-03-06T06:12:38.048Z,89.13
2023-03-06T06:15:08.666Z,88.87
2023-03-06T06:17:36.709Z,88.82
2023-03-06T06:20:05.606Z,88.93
2023-03-06T06:22:36.663Z,89.84
2023-03-06T06:25:04.972Z,89.14
2023-03-06T06:27:32.821Z,89.26
2023-03-06T06:30:00.664Z,88.13
2023-03-06T06:32:29.873Z,88.96
2023-03-06T06:34:58.149Z,88.88
2023-03-06T06:37:26.937Z,88.97
2023-03-06T06:39:54.760Z,88.96
2023-03-06T06:42:37.000Z,88.88
2023-03-06T06:45:08.064Z,88.75
2023-03-06T06:47:41.050Z,88.61
2023-03-06T06:50:11.622Z,88.67
2023-03-06T06:52:39.432Z,88.50
2023-03-06T06:55:08.011Z,87.96
2023-03-06T06:57:35.919Z,88.48
2023-03-06T07:00:04.037Z,87.61
2023-03-06T07:02:32.494Z,88.31
2023-03-06T07:05:05.128Z,87.87
2023-03-06T07:07:36.573Z,87.92
2023-03-06T07:10:06.471Z,86.99
2023-03-06T07:12:35.148Z,88.03
2023-03-06T07:15:03.774Z,87.82
2023-03-06T07:17:31.655Z,88.48
2023-03-06T07:20:00.956Z,88.34
2023-03-06T07:22:32.011Z,87.55
2023-03-06T07:25:04.572Z,87.44
2023-03-06T07:27:32.798Z,88.09
2023-03-06T07:30:00.959Z,87.23
2023-03-06T07:32:29.142Z,88.14
2023-03-06T07:35:17.218Z,86.90
2023-03-06T07:37:46.583Z,87.51
2023-03-06T07:40:14.518Z,86.79
2023-03-06T07:42:42.393Z,85.21
2023-03-06T07:45:14.030Z,85.74
2023-03-06T07:47:41.897Z,85.95
2023-03-06T07:50:10.789Z,85.02
2023-03-06T07:52:38.650Z,85.13
2023-03-06T07:55:09.670Z,83.35
2023-03-06T07:57:37.781Z,84.06
2023-03-06T08:00:07.420Z,84.08
2023-03-06T08:02:41.862Z,83.59
2023-03-06T08:05:11.311Z,84.58
2023-03-06T08:07:38.985Z,84.68
2023-03-06T08:10:09.263Z,83.02
2023-03-06T08:12:37.108Z,84.39
2023-03-06T08:15:07.695Z,85.73
2023-03-06T08:17:35.515Z,84.11
2023-03-06T08:20:03.531Z,84.01
2023-03-06T08:22:31.403Z,84.70
2023-03-06T08:24:59.410Z,86.62
2023-03-06T08:27:28.717Z,84.47
2023-03-06T08:29:56.411Z,85.22
2023-03-06T08:32:24.367Z,84.28
2023-03-06T08:34:52.488Z,85.14
2023-03-06T08:37:20.545Z,84.68
2023-03-06T08:39:48.567Z,83.20
2023-03-06T08:42:16.808Z,83.89
2023-03-06T08:44:46.163Z,82.16
2023-03-06T08:47:13.982Z,81.97
2023-03-06T08:49:41.850Z,82.95
2023-03-06T08:52:09.704Z,82.17
2023-03-06T08:54:39.122Z,82.06
2023-03-06T08:57:07.342Z,82.07
2023-03-06T08:59:35.369Z,82.62
2023-03-06T09:02:06.345Z,83.16
2023-03-06T09:04:34.326Z,81.94
2023-03-06T09:07:02.379Z,83.48
2023-03-06T09:09:30.256Z,81.99
2023-03-06T09:11:58.102Z,82.17
2023-03-06T09:14:26.014Z,82.83
2023-03-06T09:16:54.107Z,83.13
2023-03-06T09:19:23.338Z,83.70
2023-03-06T09:21:51.231Z,82.88
2023-03-06T09:24:19.114Z,83.50
2023-03-06T09:26:48.838Z,82.48
2023-03-06T09:29:17.803Z,82.26
2023-03-06T09:31:45.833Z,82.25
2023-03-06T09:34:13.709Z,82.45
2023-03-06T09:36:55.900Z,82.89
2023-03-06T09:39:25.767Z,82.08
2023-03-06T09:41:55.189Z,82.69
2023-03-06T09:44:25.947Z,81.23
2023-03-06T09:47:19.735Z,81.00
2023-03-06T09:50:01.793Z,79.60
2023-03-06T09:52:40.908Z,79.37
2023-03-06T09:55:14.147Z,78.66
2023-03-06T09:57:46.054Z,78.48
2023-03-06T10:00:16.893Z,79.04
2023-03-06T10:02:47.106Z,80.70
2023-03-06T10:05:20.642Z,80.41
2023-03-06T10:07:53.865Z,80.02
2023-03-06T10:10:24.362Z,78.73
2023-03-06T10:13:03.177Z,79.51
2023-03-06T10:15:36.027Z,77.64
2023-03-06T10:18:04.653Z,77.23
2023-03-06T10:20:40.287Z,78.88
2023-03-06T10:23:34.508Z,77.85
2023-03-06T10:26:04.448Z,80.52
2023-03-06T10:28:42.260Z,78.75
2023-03-06T10:31:16.320Z,80.31
2023-03-06T10:33:53.931Z,79.18
2023-03-06T10:36:25.421Z,79.06
2023-03-06T10:38:55.833Z,79.91
2023-03-06T10:41:29.089Z,80.01
2023-03-06T10:44:20.737Z,81.23
2023-03-06T10:46:50.178Z,81.27
2023-03-06T10:49:33.776Z,81.13
2023-03-06T10:52:05.407Z,80.08
2023-03-06T10:54:36.297Z,81.48
2023-03-06T10:57:22.557Z,80.37
2023-03-06T10:59:55.799Z,80.48
2023-03-06T11:02:30.017Z,79.94
2023-03-06T11:05:00.006Z,80.80
2023-03-06T11:07:30.045Z,80.42
2023-03-06T11:10:04.174Z,80.66
2023-03-06T11:12:34.197Z,81.65
2023-03-06T11:15:26.369Z,81.80
2023-03-06T11:17:57.920Z,80.79
2023-03-06T11:20:30.327Z,81.70
2023-03-06T11:23:08.646Z,80.80
2023-03-06T11:25:42.625Z,79.89
2023-03-06T11:28:21.522Z,80.54
2023-03-06T11:30:53.352Z,81.72
2023-03-06T11:33:28.211Z,80.53
2023-03-06T11:36:00.897Z,78.96
2023-03-06T11:38:39.963Z,81.36
2023-03-06T11:41:19.990Z,80.96
2023-03-06T11:43:54.845Z,79.57
2023-03-06T11:46:25.847Z,80.32
2023-03-06T11:48:57.429Z,80.86
2023-03-06T11:51:28.837Z,80.70
2023-03-06T11:53:59.756Z,81.30
2023-03-06T11:56:34.254Z,81.90
2023-03-06T11:59:28.893Z,80.99
2023-03-06T12:02:04.047Z,79.80
2023-03-06T12:04:53.743Z,79.58
2023-03-06T12:07:27.133Z,78.58
2023-03-06T12:10:07.660Z,78.77
2023-03-06T12:13:00.876Z,78.55
2023-03-06T12:15:41.604Z,78.21
2023-03-06T12:18:27.443Z,77.62
2023-03-06T12:21:04.223Z,77.90
2023-03-06T12:23:55.437Z,78.53
2023-03-06T12:26:51.117Z,78.30
2023-03-06T12:29:42.490Z,79.31
2023-03-06T12:32:27.677Z,79.03
2023-03-06T12:35:07.168Z,78.46
2023-03-06T12:37:46.722Z,79.21
2023-03-06T12:40:35.982Z,79.17
2023-03-06T12:43:30.626Z,78.84
2023-03-06T12:46:04.632Z,79.04
2023-03-06T12:48:37.349Z,78.81
2023-03-06T12:51:08.655Z,78.45
2023-03-06T12:53:37.679Z,78.34
2023-03-06T12:56:06.360Z,77.98
2023-03-06T12:58:49.158Z,77.70
2023-03-06T13:01:38.018Z,77.70
2023-03-06T13:04:30.499Z,78.48
2023-03-06T13:07:18.856Z,78.45
2023-03-06T13:10:04.871Z,78.35
2023-03-06T13:12:46.718Z,77.73
2023-03-06T13:15:36.212Z,77.80
2023-03-06T13:18:43.843Z,77.12
2023-03-06T13:21:46.763Z,77.11
2023-03-06T13:24:22.230Z,77.51
2023-03-06T13:26:58.741Z,77.66
2023-03-06T13:30:27.210Z,77.87
2023-03-06T13:32:56.323Z,77.63
2023-03-06T13:35:58.752Z,78.24
2023-03-06T13:38:59.853Z,78.48
2023-03-06T13:41:37.549Z,79.02
2023-03-06T13:44:49.591Z,78.11
2023-03-06T13:48:19.564Z,78.66
2023-03-06T13:50:44.447Z,78.52
2023-03-06T13:53:53.587Z,78.66
2023-03-06T13:56:33.421Z,78.28
2023-03-06T13:59:27.491Z,78.24
2023-03-06T14:02:10.023Z,77.96
2023-03-06T14:04:45.464Z,78.62
2023-03-06T14:07:28.831Z,78.46
2023-03-06T14:10:11.844Z,78.42
2023-03-06T14:12:43.518Z,78.51
2023-03-06T14:15:18.451Z,77.75
2023-03-06T14:17:57.267Z,78.56
2023-03-06T14:20:34.138Z,78.77
2023-03-06T14:23:16.403Z,78.95
2023-03-06T14:25:47.257Z,79.29
2023-03-06T14:28:25.554Z,79.49
2023-03-06T14:30:55.350Z,79.91
2023-03-06T14:33:31.682Z,79.69
2023-03-06T14:36:02.481Z,79.60
2023-03-06T14:38:35.516Z,79.97
2023-03-06T14:41:06.483Z,79.54
2023-03-06T14:43:34.549Z,79.62
2023-03-06T14:46:05.114Z,79.06
2023-03-06T14:48:42.021Z,79.80
2023-03-06T14:51:16.719Z,80.03
2023-03-06T14:53:46.362Z,79.24
2023-03-06T14:56:19.078Z,79.29
2023-03-06T14:58:55.276Z,78.95
2023-03-06T15:01:28.408Z,79.59
2023-03-06T15:04:00.531Z,79.06
2023-03-06T15:06:33.182Z,78.67
2023-03-06T15:09:07.220Z,78.84
2023-03-06T15:11:59.025Z,78.96
2023-03-06T15:14:33.899Z,78.80
2023-03-06T15:17:23.651Z,77.95
2023-03-06T15:19:54.449Z,77.27
2023-03-06T15:22:31.954Z,77.04
2023-03-06T15:25:22.003Z,76.60
2023-03-06T15:27:53.571Z,76.35
2023-03-06T15:30:31.340Z,75.78
2023-03-06T15:33:21.031Z,75.60
2023-03-06T15:35:54.934Z,74.78
2023-03-06T15:38:26.232Z,75.53
2023-03-06T15:40:59.090Z,76.02
2023-03-06T15:43:29.678Z,76.69
2023-03-06T15:46:01.479Z,76.81
2023-03-06T15:48:29.572Z,76.30
2023-03-06T15:50:58.264Z,76.71
2023-03-06T15:53:26.279Z,76.37
2023-03-06T15:55:54.442Z,76.83
2023-03-06T15:58:24.820Z,76.98
2023-03-06T16:00:54.122Z,77.21
2023-03-06T16:03:21.887Z,77.42
2023-03-06T16:05:49.713Z,77.63
2023-03-06T16:08:17.540Z,77.72
2023-03-06T16:10:46.300Z,78.16
2023-03-06T16:13:18.167Z,78.60
2023-03-06T16:15:48.235Z,78.95
2023-03-06T16:18:18.290Z,79.16
2023-03-06T16:20:46.417Z,79.08
2023-03-06T16:23:15.387Z,79.11
2023-03-06T16:25:47.543Z,79.28
2023-03-06T16:28:17.603Z,79.25
2023-03-06T16:30:46.374Z,78.63
2023-03-06T16:33:15.265Z,78.61
2023-03-06T16:35:46.658Z,78.69
2023-03-06T16:38:15.665Z,78.55
2023-03-06T16:40:44.055Z,78.09
2023-03-06T16:43:13.405Z,78.14
2023-03-06T16:45:42.302Z,78.03
2023-03-06T16:48:15.079Z,78.16
2023-03-06T16:50:44.550Z,77.84
2023-03-06T16:53:12.400Z,77.90
2023-03-06T16:55:40.388Z,77.88
2023-03-06T16:58:09.444Z,78.13
2023-03-06T17:00:37.626Z,78.23
2023-03-06T17:03:05.829Z,78.26
2023-03-06T17:05:34.360Z,78.55
2023-03-06T17:08:04.069Z,78.66
2023-03-06T17:10:32.597Z,78.83
2023-03-06T17:13:00.581Z,78.73
2023-03-06T17:15:28.461Z,78.96
2023-03-06T17:17:57.811Z,78.79
2023-03-06T17:20:25.536Z,78.69
2023-03-06T17:22:53.547Z,78.47
2023-03-06T17:25:22.801Z,78.51
2023-03-06T17:27:50.744Z,78.31
2023-03-06T17:30:18.868Z,78.07
2023-03-06T17:32:46.711Z,77.91
2023-03-06T17:35:15.843Z,77.94
2023-03-06T17:37:43.688Z,78.07
2023-03-06T17:40:12.328Z,77.96
2023-03-06T17:42:41.563Z,78.15
2023-03-06T17:45:11.081Z,78.25
2023-03-06T17:47:38.998Z,78.30
2023-03-06T17:50:07.262Z,78.37
2023-03-06T17:52:35.251Z,78.39
2023-03-06T17:55:03.074Z,78.51
2023-03-06T17:57:30.910Z,78.80
2023-03-06T18:00:00.265Z,78.41
2023-03-06T18:02:27.983Z,78.34
2023-03-06T18:04:56.781Z,78.02
2023-03-06T18:07:24.758Z,77.99
2023-03-06T18:09:52.635Z,77.57
2023-03-06T18:12:20.500Z,77.62
2023-03-06T18:14:48.673Z,77.36
2023-03-06T18:17:18.150Z,76.95
2023-03-06T18:19:45.975Z,77.02
2023-03-06T18:22:13.831Z,76.56
2023-03-06T18:24:41.649Z,76.61
2023-03-06T18:27:09.540Z,76.58
2023-03-06T18:29:37.410Z,76.90
2023-03-06T18:32:05.448Z,76.99
2023-03-06T18:34:34.705Z,76.80
2023-03-06T18:37:02.648Z,76.99
2023-03-06T18:39:30.644Z,77.15
2023-03-06T18:41:58.504Z,77.00
2023-03-06T18:44:29.224Z,77.17
2023-03-06T18:46:57.177Z,77.29
2023-03-06T18:49:25.145Z,77.22
2023-03-06T18:51:54.496Z,77.40
2023-03-06T18:54:24.368Z,77.43
2023-03-06T18:56:52.256Z,77.30
2023-03-06T18:59:20.264Z,77.34
2023-03-06T19:01:48.745Z,77.69
2023-03-06T19:04:16.996Z,77.66
2023-03-06T19:06:44.895Z,77.50
2023-03-06T19:09:14.260Z,77.55
2023-03-06T19:11:42.762Z,77.35
2023-03-06T19:14:10.769Z,77.12
2023-03-06T19:16:38.713Z,77.23
2023-03-06T19:19:06.679Z,77.41
2023-03-06T19:21:34.762Z,77.48
2023-03-06T19:24:03.112Z,77.08
2023-03-06T19:26:32.499Z,77.06
2023-03-06T19:29:00.308Z,76.93
2023-03-06T19:31:29.074Z,76.93
2023-03-06T19:33:57.835Z,77.07
2023-03-06T19:36:28.889Z,77.09
2023-03-06T19:38:57.794Z,77.13
2023-03-06T19:41:26.236Z,77.24
2023-03-06T19:43:57.205Z,77.29
2023-03-06T19:46:25.515Z,77.41
2023-03-06T19:48:57.014Z,77.37
2023-03-06T19:51:24.921Z,77.52
2023-03-06T19:53:53.116Z,77.84
2023-03-06T19:56:22.599Z,78.47
2023-03-06T19:58:50.436Z,79.29
2023-03-06T20:01:21.980Z,79.61
2023-03-06T20:03:50.609Z,79.74
2023-03-06T20:06:20.867Z,80.18
2023-03-06T20:08:49.132Z,80.32
2023-03-06T20:11:18.277Z,80.67
2023-03-06T20:13:47.895Z,80.74
2023-03-06T20:16:16.055Z,80.99
2023-03-06T20:18:45.773Z,81.44
2023-03-06T20:21:13.669Z,81.76
2023-03-06T20:23:41.770Z,82.09
2023-03-06T20:26:11.862Z,82.45
2023-03-06T20:28:40.834Z,82.73
2023-03-06T20:31:09.908Z,83.05
2023-03-06T20:33:38.202Z,83.19
2023-03-06T20:36:13.113Z,83.45
2023-03-06T20:38:41.112Z,83.66
2023-03-06T20:41:15.307Z,83.73
2023-03-06T20:43:43.457Z,83.73
2023-03-06T20:46:12.373Z,83.70
2023-03-06T20:48:40.889Z,83.54
2023-03-06T20:51:16.246Z,83.52
2023-03-06T20:53:44.121Z,83.57
2023-03-06T20:56:13.623Z,83.68
2023-03-06T20:58:41.499Z,83.59
2023-03-06T21:01:09.399Z,83.93
2023-03-06T21:03:37.308Z,83.98
2023-03-06T21:06:05.566Z,84.11
2023-03-06T21:08:34.721Z,84.08
2023-03-06T21:11:02.628Z,84.30
2023-03-06T21:13:30.501Z,84.41
2023-03-06T21:15:58.471Z,84.52
2023-03-06T21:18:26.433Z,84.59
2023-03-06T21:20:54.311Z,84.58
2023-03-06T21:23:22.199Z,84.61
2023-03-06T21:25:52.844Z,84.76
2023-03-06T21:28:21.197Z,84.80
2023-03-06T21:30:49.051Z,85.00
2023-03-06T21:33:17.265Z,85.56
2023-03-06T21:35:46.878Z,85.92
2023-03-06T21:38:15.460Z,86.36
2023-03-06T21:40:45.447Z,86.78
2023-03-06T21:43:15.739Z,87.00
2023-03-06T21:45:44.864Z,87.17
2023-03-06T21:48:13.194Z,87.43
2023-03-06T21:50:41.624Z,87.82
2023-03-06T21:53:10.107Z,88.05
2023-03-06T21:55:41.241Z,88.37
2023-03-06T21:58:09.883Z,88.71
2023-03-06T22:00:39.456Z,89.69
2023-03-06T22:03:07.277Z,89.80
2023-03-06T22:05:35.346Z,89.35
2023-03-06T22:08:03.197Z,89.67
2023-03-06T22:10:31.059Z,89.71
2023-03-06T22:12:58.906Z,89.60
2023-03-06T22:15:26.890Z,89.62
2023-03-06T22:17:56.113Z,89.97
2023-03-06T22:20:24.008Z,90.08
2023-03-06T22:22:51.866Z,90.09
2023-03-06T22:25:19.789Z,90.40
2023-03-06T22:27:47.689Z,90.30
2023-03-06T22:30:15.800Z,90.39
2023-03-06T22:32:43.730Z,90.26
2023-03-06T22:35:12.949Z,90.53
2023-03-06T22:37:40.744Z,90.48
2023-03-06T22:40:09.619Z,90.82
2023-03-06T22:42:37.511Z,90.64
2023-03-06T22:45:06.201Z,90.74
2023-03-06T22:47:36.828Z,91.09
2023-03-06T22:50:05.007Z,91.05
2023-03-06T22:52:34.805Z,91.03
2023-03-06T22:55:03.000Z,91.17
2023-03-06T22:57:30.938Z,90.98
2023-03-06T22:59:58.956Z,91.23
2023-03-06T23:02:26.823Z,91.26
2023-03-06T23:04:54.620Z,91.26
2023-03-06T23:07:22.665Z,91.40
2023-03-06T23:09:52.701Z,91.41
2023-03-06T23:12:41.553Z,91.35
2023-03-06T23:15:27.678Z,91.47
2023-03-06T23:18:14.018Z,91.38
2023-03-06T23:21:00.548Z,91.43
2023-03-06T23:23:49.136Z,91.69
2023-03-06T23:26:19.429Z,91.70
2023-03-06T23:28:47.341Z,91.53
2023-03-06T23:31:18.105Z,91.65
2023-03-06T23:33:46.013Z,91.68
2023-03-06T23:36:16.555Z,91.76
2023-03-06T23:38:44.920Z,91.42
2023-03-06T23:41:14.937Z,91.52
2023-03-06T23:43:44.604Z,91.65
2023-03-06T23:46:13.071Z,91.79
2023-03-06T23:48:42.220Z,91.83
2023-03-06T23:51:13.755Z,91.74
2023-03-06T23:53:41.557Z,91.79
2023-03-06T23:56:10.068Z,91.76
2023-03-06T23:58:38.348Z,91.52
